Terminal Aerodrome Forecast
Issued by NWS

Home | Current Version | Previous Version | Text Only | Print | Product List | Glossary On
Versions: 1 2 3 4 5 6 7 8 9 10 11 12 13 14 15 16 17 18 19 20 21 22 23 24 25 26
000
FTUS45 KLKN 242320
TAFWMC
TAF
KWMC 242320Z 2500/2524 33008KT P6SM VCSH SCT060 BKN100
      TEMPO 2500/2502 VRB20KT -SHRA BKN060 OVC090
     FM250200 VRB05KT P6SM SCT100
     FM251800 32010KT P6SM VCSH SCT060 BKN100 PROB30 2518/2524 -SHRA
      BKN060 OVC100=

USA.gov is the U.S. government's official web portal to all federal, state and local government web resources and services.